sensor_id;sensor_type;location;lat;lon;timestamp;pressure;altitude;pressure_sealevel;temperature;humidity
18918;BME280;9591;52.742;13.650;2023-10-09T00:01:07;101653.00;;;31.04;23.66
18918;BME280;9591;52.742;13.650;2023-10-09T00:03:59;101641.84;;;31.23;23.20
18918;BME280;9591;52.742;13.650;2023-10-09T00:06:48;101641.88;;;31.06;23.77
18918;BME280;9591;52.742;13.650;2023-10-09T00:09:35;101635.72;;;31.04;23.54
18918;BME280;9591;52.742;13.650;2023-10-09T00:12:31;101645.16;;;31.35;23.18
18918;BME280;9591;52.742;13.650;2023-10-09T00:15:20;101657.06;;;31.26;23.20
18918;BME280;9591;52.742;13.650;2023-10-09T00:18:09;101656.69;;;31.81;22.52
18918;BME280;9591;52.742;13.650;2023-10-09T00:20:58;101631.22;;;31.20;23.04
18918;BME280;9591;52.742;13.650;2023-10-09T00:23:56;101636.19;;;31.59;23.16
18918;BME280;9591;52.742;13.650;2023-10-09T00:26:45;101627.53;;;31.38;23.32
18918;BME280;9591;52.742;13.650;2023-10-09T00:29:32;101626.81;;;31.27;23.50
18918;BME280;9591;52.742;13.650;2023-10-09T00:32:23;101622.47;;;31.51;22.83
18918;BME280;9591;52.742;13.650;2023-10-09T00:35:12;101627.75;;;31.44;22.72
18918;BME280;9591;52.742;13.650;2023-10-09T00:38:13;101594.84;;;31.02;22.96
18918;BME280;9591;52.742;13.650;2023-10-09T00:41:17;101601.19;;;31.03;23.47
18918;BME280;9591;52.742;13.650;2023-10-09T00:44:10;101598.22;;;31.22;22.72
18918;BME280;9591;52.742;13.650;2023-10-09T00:46:57;101597.22;;;31.65;22.45
18918;BME280;9591;52.742;13.650;2023-10-09T00:49:58;101591.63;;;31.41;22.88
18918;BME280;9591;52.742;13.650;2023-10-09T00:52:49;101588.63;;;31.60;22.82
18918;BME280;9591;52.742;13.650;2023-10-09T00:55:39;101585.75;;;31.61;22.99
18918;BME280;9591;52.742;13.650;2023-10-09T00:58:30;101577.88;;;31.67;22.88
18918;BME280;9591;52.742;13.650;2023-10-09T01:01:21;101566.47;;;31.71;22.85
18918;BME280;9591;52.742;13.650;2023-10-09T01:04:13;101574.34;;;31.74;22.81
18918;BME280;9591;52.742;13.650;2023-10-09T01:07:05;101568.63;;;31.59;23.40
18918;BME280;9591;52.742;13.650;2023-10-09T01:10:00;101562.44;;;31.49;23.29
18918;BME280;9591;52.742;13.650;2023-10-09T01:12:56;101548.50;;;31.35;23.19
18918;BME280;9591;52.742;13.650;2023-10-09T01:15:44;101550.88;;;31.29;23.53
18918;BME280;9591;52.742;13.650;2023-10-09T01:18:33;101550.19;;;31.19;23.85
18918;BME280;9591;52.742;13.650;2023-10-09T01:21:26;101536.41;;;31.45;23.66
18918;BME280;9591;52.742;13.650;2023-10-09T01:24:19;101514.28;;;31.30;23.50
18918;BME280;9591;52.742;13.650;2023-10-09T01:27:08;101492.53;;;31.21;24.02
18918;BME280;9591;52.742;13.650;2023-10-09T01:30:01;101494.22;;;30.80;24.30
18918;BME280;9591;52.742;13.650;2023-10-09T01:32:48;101497.16;;;30.86;24.30
18918;BME280;9591;52.742;13.650;2023-10-09T01:35:36;101492.25;;;31.32;23.95
18918;BME280;9591;52.742;13.650;2023-10-09T01:38:32;101481.03;;;31.59;23.12
18918;BME280;9591;52.742;13.650;2023-10-09T01:41:28;101475.81;;;31.32;23.35
18918;BME280;9591;52.742;13.650;2023-10-09T01:44:19;101468.78;;;31.13;23.62
18918;BME280;9591;52.742;13.650;2023-10-09T01:47:07;101454.38;;;31.70;23.30
18918;BME280;9591;52.742;13.650;2023-10-09T01:49:58;101441.91;;;31.75;23.37
18918;BME280;9591;52.742;13.650;2023-10-09T01:52:51;101429.22;;;31.82;22.81
18918;BME280;9591;52.742;13.650;2023-10-09T01:55:38;101433.31;;;32.27;22.56
18918;BME280;9591;52.742;13.650;2023-10-09T01:58:28;101426.84;;;31.87;23.23
18918;BME280;9591;52.742;13.650;2023-10-09T02:01:18;101423.25;;;31.79;23.48
18918;BME280;9591;52.742;13.650;2023-10-09T02:04:06;101420.50;;;31.71;23.10
18918;BME280;9591;52.742;13.650;2023-10-09T02:06:59;101420.31;;;31.97;22.95
18918;BME280;9591;52.742;13.650;2023-10-09T02:09:52;101412.13;;;31.97;23.01
18918;BME280;9591;52.742;13.650;2023-10-09T02:12:39;101388.97;;;31.67;23.43
18918;BME280;9591;52.742;13.650;2023-10-09T02:15:29;101406.13;;;31.77;23.13
18918;BME280;9591;52.742;13.650;2023-10-09T02:18:37;101399.63;;;31.70;23.48
18918;BME280;9591;52.742;13.650;2023-10-09T02:21:38;101401.59;;;31.35;24.10
18918;BME280;9591;52.742;13.650;2023-10-09T02:24:28;101410.16;;;31.32;23.89
18918;BME280;9591;52.742;13.650;2023-10-09T02:27:28;101405.56;;;31.41;23.84
18918;BME280;9591;52.742;13.650;2023-10-09T02:30:39;101410.34;;;31.39;24.20
18918;BME280;9591;52.742;13.650;2023-10-09T02:33:27;101397.38;;;31.65;23.92
18918;BME280;9591;52.742;13.650;2023-10-09T02:36:16;101403.50;;;31.35;24.36
18918;BME280;9591;52.742;13.650;2023-10-09T02:39:03;101396.47;;;31.32;23.73
18918;BME280;9591;52.742;13.650;2023-10-09T02:41:51;101400.50;;;31.04;24.53
18918;BME280;9591;52.742;13.650;2023-10-09T02:44:41;101396.22;;;31.01;24.21
18918;BME280;9591;52.742;13.650;2023-10-09T02:47:33;101401.72;;;31.09;24.32
18918;BME280;9591;52.742;13.650;2023-10-09T02:50:25;101390.09;;;31.07;24.41
18918;BME280;9591;52.742;13.650;2023-10-09T02:53:13;101390.66;;;31.19;24.11
18918;BME280;9591;52.742;13.650;2023-10-09T02:56:05;101387.56;;;31.22;24.45
18918;BME280;9591;52.742;13.650;2023-10-09T02:58:59;101378.00;;;31.18;24.32
18918;BME280;9591;52.742;13.650;2023-10-09T03:01:51;101372.72;;;31.41;23.96
18918;BME280;9591;52.742;13.650;2023-10-09T03:04:40;101377.56;;;30.88;24.88
18918;BME280;9591;52.742;13.650;2023-10-09T03:07:27;101360.72;;;31.25;24.04
18918;BME280;9591;52.742;13.650;2023-10-09T03:10:15;101355.94;;;31.36;24.26
18918;BME280;9591;52.742;13.650;2023-10-09T03:13:03;101346.19;;;31.66;23.79
18918;BME280;9591;52.742;13.650;2023-10-09T03:15:51;101334.41;;;31.89;23.53
18918;BME280;9591;52.742;13.650;2023-10-09T03:18:38;101322.78;;;31.79;23.90
18918;BME280;9591;52.742;13.650;2023-10-09T03:21:26;101323.44;;;31.57;23.90
18918;BME280;9591;52.742;13.650;2023-10-09T03:24:13;101320.06;;;31.71;23.77
18918;BME280;9591;52.742;13.650;2023-10-09T03:27:02;101315.06;;;31.67;23.88
18918;BME280;9591;52.742;13.650;2023-10-09T03:29:48;101295.56;;;31.86;24.09
18918;BME280;9591;52.742;13.650;2023-10-09T03:32:39;101282.72;;;31.86;24.20
18918;BME280;9591;52.742;13.650;2023-10-09T03:35:26;101281.03;;;31.61;24.42
18918;BME280;9591;52.742;13.650;2023-10-09T03:38:15;101276.94;;;31.41;24.73
18918;BME280;9591;52.742;13.650;2023-10-09T03:41:05;101287.38;;;31.45;24.57
18918;BME280;9591;52.742;13.650;2023-10-09T03:43:53;101241.78;;;32.01;23.19
18918;BME280;9591;52.742;13.650;2023-10-09T03:46:40;101274.34;;;32.35;22.92
18918;BME280;9591;52.742;13.650;2023-10-09T03:49:30;101284.97;;;31.50;23.55
18918;BME280;9591;52.742;13.650;2023-10-09T03:52:17;101287.03;;;31.40;23.71
18918;BME280;9591;52.742;13.650;2023-10-09T03:55:07;101292.84;;;31.78;23.85
18918;BME280;9591;52.742;13.650;2023-10-09T03:57:57;101322.66;;;32.28;22.88
18918;BME280;9591;52.742;13.650;2023-10-09T04:00:45;101333.88;;;31.94;23.26
18918;BME280;9591;52.742;13.650;2023-10-09T04:03:35;101337.13;;;31.49;23.74
18918;BME280;9591;52.742;13.650;2023-10-09T04:06:22;101307.88;;;31.49;23.74
18918;BME280;9591;52.742;13.650;2023-10-09T04:09:14;101296.09;;;31.41;24.49
18918;BME280;9591;52.742;13.650;2023-10-09T04:12:16;101285.88;;;32.14;23.80
18918;BME280;9591;52.742;13.650;2023-10-09T04:15:11;101283.97;;;32.31;23.13
18918;BME280;9591;52.742;13.650;2023-10-09T04:18:03;101260.41;;;32.06;23.81
18918;BME280;9591;52.742;13.650;2023-10-09T04:20:55;101260.25;;;31.99;23.97
18918;BME280;9591;52.742;13.650;2023-10-09T04:24:05;101249.38;;;31.83;23.97
18918;BME280;9591;52.742;13.650;2023-10-09T04:27:08;101266.47;;;31.60;23.79
18918;BME280;9591;52.742;13.650;2023-10-09T04:29:57;101260.31;;;31.67;23.73
18918;BME280;9591;52.742;13.650;2023-10-09T04:32:46;101251.94;;;31.76;24.09
18918;BME280;9591;52.742;13.650;2023-10-09T04:35:35;101249.38;;;31.83;23.89
18918;BME280;9591;52.742;13.650;2023-10-09T04:38:24;101248.13;;;31.93;24.02
18918;BME280;9591;52.742;13.650;2023-10-09T04:41:12;101229.38;;;31.50;24.31
18918;BME280;9591;52.742;13.650;2023-10-09T04:44:13;101250.41;;;31.57;24.06
18918;BME280;9591;52.742;13.650;2023-10-09T04:47:06;101262.22;;;31.58;24.40
18918;BME280;9591;52.742;13.650;2023-10-09T04:50:11;101250.25;;;31.51;24.01
18918;BME280;9591;52.742;13.650;2023-10-09T04:53:20;101253.66;;;31.45;24.12
18918;BME280;9591;52.742;13.650;2023-10-09T04:56:14;101259.81;;;31.47;24.29
18918;BME280;9591;52.742;13.650;2023-10-09T04:59:02;101266.31;;;31.38;24.24
18918;BME280;9591;52.742;13.650;2023-10-09T05:01:54;101250.41;;;31.49;23.98
18918;BME280;9591;52.742;13.650;2023-10-09T05:04:51;101255.19;;;31.63;23.79
18918;BME280;9591;52.742;13.650;2023-10-09T05:07:58;101235.69;;;31.50;24.29
18918;BME280;9591;52.742;13.650;2023-10-09T05:11:03;101228.03;;;31.21;24.50
18918;BME280;9591;52.742;13.650;2023-10-09T05:14:05;101220.16;;;31.26;24.13
18918;BME280;9591;52.742;13.650;2023-10-09T05:16:59;101223.28;;;31.15;24.48
18918;BME280;9591;52.742;13.650;2023-10-09T05:19:53;101227.84;;;30.82;24.80
18918;BME280;9591;52.742;13.650;2023-10-09T05:23:03;101232.16;;;31.17;24.59
18918;BME280;9591;52.742;13.650;2023-10-09T05:26:09;101234.88;;;31.25;24.71
18918;BME280;9591;52.742;13.650;2023-10-09T05:29:12;101227.56;;;31.18;24.49
18918;BME280;9591;52.742;13.650;2023-10-09T05:32:05;101220.50;;;31.40;24.71
18918;BME280;9591;52.742;13.650;2023-10-09T05:35:02;101211.59;;;31.46;24.28
18918;BME280;9591;52.742;13.650;2023-10-09T05:38:01;101214.91;;;31.97;23.70
18918;BME280;9591;52.742;13.650;2023-10-09T05:40:50;101218.91;;;31.78;23.73
18918;BME280;9591;52.742;13.650;2023-10-09T05:43:50;101215.66;;;31.74;23.74
18918;BME280;9591;52.742;13.650;2023-10-09T05:47:00;101219.75;;;31.78;23.69
18918;BME280;9591;52.742;13.650;2023-10-09T05:50:07;101212.19;;;31.97;24.17
18918;BME280;9591;52.742;13.650;2023-10-09T05:53:11;101143.09;;;31.78;23.67
18918;BME280;9591;52.742;13.650;2023-10-09T05:56:20;101201.47;;;32.49;23.36
18918;BME280;9591;52.742;13.650;2023-10-09T05:59:25;101193.69;;;31.99;23.69
18918;BME280;9591;52.742;13.650;2023-10-09T06:02:29;101194.59;;;31.83;24.22
18918;BME280;9591;52.742;13.650;2023-10-09T06:05:48;101183.25;;;31.94;23.68
18918;BME280;9591;52.742;13.650;2023-10-09T06:08:47;101188.22;;;31.99;23.65
18918;BME280;9591;52.742;13.650;2023-10-09T06:11:49;101193.19;;;31.95;24.17
18918;BME280;9591;52.742;13.650;2023-10-09T06:14:41;101188.09;;;31.84;24.24
18918;BME280;9591;52.742;13.650;2023-10-09T06:17:43;101196.19;;;32.08;24.12
18918;BME280;9591;52.742;13.650;2023-10-09T06:20:30;101193.63;;;32.46;23.58
18918;BME280;9591;52.742;13.650;2023-10-09T06:23:55;101189.16;;;32.45;23.56
18918;BME280;9591;52.742;13.650;2023-10-09T06:26:55;101176.59;;;32.28;23.30
18918;BME280;9591;52.742;13.650;2023-10-09T06:29:58;101172.47;;;31.92;23.87
18918;BME280;9591;52.742;13.650;2023-10-09T06:32:52;101183.28;;;32.25;23.80
18918;BME280;9591;52.742;13.650;2023-10-09T06:35:50;101177.25;;;31.27;24.15
18918;BME280;9591;52.742;13.650;2023-10-09T06:38:40;101188.34;;;32.36;23.17
18918;BME280;9591;52.742;13.650;2023-10-09T06:41:59;101182.44;;;32.24;23.49
18918;BME280;9591;52.742;13.650;2023-10-09T06:45:15;101191.97;;;31.98;24.11
18918;BME280;9591;52.742;13.650;2023-10-09T06:48:05;101197.81;;;32.56;23.17
18918;BME280;9591;52.742;13.650;2023-10-09T06:50:55;101192.34;;;33.02;23.08
18918;BME280;9591;52.742;13.650;2023-10-09T06:53:49;101187.47;;;32.44;23.53
18918;BME280;9591;52.742;13.650;2023-10-09T06:56:43;101199.28;;;32.44;23.43
18918;BME280;9591;52.742;13.650;2023-10-09T06:59:48;101183.44;;;32.54;23.64
18918;BME280;9591;52.742;13.650;2023-10-09T07:02:52;101176.31;;;32.45;24.02
18918;BME280;9591;52.742;13.650;2023-10-09T07:05:40;101189.53;;;32.42;23.69
18918;BME280;9591;52.742;13.650;2023-10-09T07:08:46;101180.03;;;32.52;23.66
18918;BME280;9591;52.742;13.650;2023-10-09T07:11:46;101157.44;;;32.19;23.71
18918;BME280;9591;52.742;13.650;2023-10-09T07:14:55;101174.72;;;32.82;23.28
18918;BME280;9591;52.742;13.650;2023-10-09T07:17:47;101175.00;;;32.87;23.53
18918;BME280;9591;52.742;13.650;2023-10-09T07:20:38;101178.72;;;33.32;22.76
18918;BME280;9591;52.742;13.650;2023-10-09T07:23:32;101181.22;;;32.81;23.74
18918;BME280;9591;52.742;13.650;2023-10-09T07:26:19;101190.44;;;32.34;23.87
18918;BME280;9591;52.742;13.650;2023-10-09T07:29:09;101191.63;;;32.01;24.28
18918;BME280;9591;52.742;13.650;2023-10-09T07:32:03;101194.84;;;32.04;24.60
18918;BME280;9591;52.742;13.650;2023-10-09T07:34:58;101196.31;;;31.76;24.21
18918;BME280;9591;52.742;13.650;2023-10-09T07:37:47;101201.09;;;32.21;24.03
18918;BME280;9591;52.742;13.650;2023-10-09T07:40:37;101199.00;;;32.31;24.21
18918;BME280;9591;52.742;13.650;2023-10-09T07:43:40;101137.69;;;32.01;23.96
18918;BME280;9591;52.742;13.650;2023-10-09T07:46:31;101202.81;;;32.53;24.00
18918;BME280;9591;52.742;13.650;2023-10-09T07:49:19;101200.09;;;32.14;23.92
18918;BME280;9591;52.742;13.650;2023-10-09T07:52:10;101205.47;;;32.38;24.07
18918;BME280;9591;52.742;13.650;2023-10-09T07:54:57;101205.16;;;32.64;24.02
18918;BME280;9591;52.742;13.650;2023-10-09T07:57:53;101204.22;;;32.49;23.98
18918;BME280;9591;52.742;13.650;2023-10-09T08:00:40;101209.59;;;32.65;23.67
18918;BME280;9591;52.742;13.650;2023-10-09T08:03:51;101211.31;;;32.66;23.69
18918;BME280;9591;52.742;13.650;2023-10-09T08:06:47;101214.03;;;32.66;24.16
18918;BME280;9591;52.742;13.650;2023-10-09T08:09:54;101214.78;;;32.60;23.67
18918;BME280;9591;52.742;13.650;2023-10-09T08:12:59;101213.47;;;32.79;23.45
18918;BME280;9591;52.742;13.650;2023-10-09T08:16:10;101213.59;;;32.85;23.55
18918;BME280;9591;52.742;13.650;2023-10-09T08:19:06;101217.00;;;32.87;23.33
18918;BME280;9591;52.742;13.650;2023-10-09T08:22:18;101212.88;;;33.06;23.19
18918;BME280;9591;52.742;13.650;2023-10-09T08:25:28;101216.72;;;33.20;23.40
18918;BME280;9591;52.742;13.650;2023-10-09T08:28:19;101215.06;;;33.34;23.28
18918;BME280;9591;52.742;13.650;2023-10-09T08:31:25;101215.00;;;33.19;22.95
18918;BME280;9591;52.742;13.650;2023-10-09T08:34:31;101225.75;;;33.29;23.34
18918;BME280;9591;52.742;13.650;2023-10-09T08:37:37;101224.16;;;33.34;23.10
18918;BME280;9591;52.742;13.650;2023-10-09T08:40:29;101209.09;;;33.07;23.22
18918;BME280;9591;52.742;13.650;2023-10-09T08:43:21;101214.34;;;33.69;22.99
18918;BME280;9591;52.742;13.650;2023-10-09T08:46:08;101221.31;;;33.80;22.21
18918;BME280;9591;52.742;13.650;2023-10-09T08:48:59;101222.09;;;33.51;22.86
18918;BME280;9591;52.742;13.650;2023-10-09T08:51:47;101225.31;;;33.40;23.28
18918;BME280;9591;52.742;13.650;2023-10-09T08:54:35;101228.41;;;33.37;23.47
18918;BME280;9591;52.742;13.650;2023-10-09T08:57:23;101233.13;;;33.05;23.71
18918;BME280;9591;52.742;13.650;2023-10-09T09:00:17;101228.06;;;32.71;23.75
18918;BME280;9591;52.742;13.650;2023-10-09T09:03:07;101217.78;;;32.96;23.50
18918;BME280;9591;52.742;13.650;2023-10-09T09:05:58;101219.09;;;33.00;23.84
18918;BME280;9591;52.742;13.650;2023-10-09T09:08:47;101210.84;;;32.85;23.97
18918;BME280;9591;52.742;13.650;2023-10-09T09:11:41;101209.28;;;32.60;23.59
18918;BME280;9591;52.742;13.650;2023-10-09T09:14:37;101210.44;;;32.66;23.75
18918;BME280;9591;52.742;13.650;2023-10-09T09:17:32;101197.69;;;32.50;23.92
18918;BME280;9591;52.742;13.650;2023-10-09T09:20:22;101189.44;;;32.27;24.44
18918;BME280;9591;52.742;13.650;2023-10-09T09:23:13;101205.38;;;32.54;24.37
18918;BME280;9591;52.742;13.650;2023-10-09T09:25:59;101207.75;;;32.57;23.99
18918;BME280;9591;52.742;13.650;2023-10-09T09:28:53;101209.94;;;32.62;24.25
18918;BME280;9591;52.742;13.650;2023-10-09T09:31:52;101203.94;;;32.67;24.16
18918;BME280;9591;52.742;13.650;2023-10-09T09:34:45;101200.81;;;32.70;24.32
18918;BME280;9591;52.742;13.650;2023-10-09T09:37:34;101198.97;;;32.39;24.56
18918;BME280;9591;52.742;13.650;2023-10-09T09:40:36;101206.66;;;32.67;24.00
18918;BME280;9591;52.742;13.650;2023-10-09T09:43:27;101185.00;;;32.80;23.92
18918;BME280;9591;52.742;13.650;2023-10-09T09:46:17;101199.75;;;33.16;23.32
18918;BME280;9591;52.742;13.650;2023-10-09T09:49:08;101208.00;;;32.94;23.51
18918;BME280;9591;52.742;13.650;2023-10-09T09:52:04;101198.72;;;33.17;23.89
18918;BME280;9591;52.742;13.650;2023-10-09T09:54:55;101198.94;;;33.68;23.04
18918;BME280;9591;52.742;13.650;2023-10-09T09:57:44;101199.03;;;33.22;22.77
18918;BME280;9591;52.742;13.650;2023-10-09T10:00:37;101206.38;;;33.45;23.09
18918;BME280;9591;52.742;13.650;2023-10-09T10:03:32;101208.16;;;33.38;23.40
18918;BME280;9591;52.742;13.650;2023-10-09T10:06:21;101201.88;;;33.81;23.25
18918;BME280;9591;52.742;13.650;2023-10-09T10:09:34;101208.66;;;33.56;23.33
18918;BME280;9591;52.742;13.650;2023-10-09T10:12:49;101208.28;;;33.44;23.29
18918;BME280;9591;52.742;13.650;2023-10-09T10:16:00;101194.19;;;33.77;23.00
18918;BME280;9591;52.742;13.650;2023-10-09T10:18:58;101196.66;;;33.72;23.19
18918;BME280;9591;52.742;13.650;2023-10-09T10:22:25;101196.91;;;33.33;23.12
18918;BME280;9591;52.742;13.650;2023-10-09T10:25:35;101185.38;;;33.52;23.47
18918;BME280;9591;52.742;13.650;2023-10-09T10:28:27;101180.94;;;33.66;22.84
18918;BME280;9591;52.742;13.650;2023-10-09T10:31:52;101192.59;;;33.68;23.02
18918;BME280;9591;52.742;13.650;2023-10-09T10:34:52;101191.53;;;33.69;23.19
18918;BME280;9591;52.742;13.650;2023-10-09T10:37:42;101186.72;;;33.85;22.84
18918;BME280;9591;52.742;13.650;2023-10-09T10:40:37;101114.28;;;33.57;22.96
18918;BME280;9591;52.742;13.650;2023-10-09T10:43:26;101181.59;;;33.82;23.62
18918;BME280;9591;52.742;13.650;2023-10-09T10:46:33;101170.34;;;34.28;22.96
18918;BME280;9591;52.742;13.650;2023-10-09T10:49:34;101170.69;;;33.30;23.12
18918;BME280;9591;52.742;13.650;2023-10-09T10:52:24;101176.88;;;33.62;23.21
18918;BME280;9591;52.742;13.650;2023-10-09T10:55:22;101184.34;;;33.68;23.17
18918;BME280;9591;52.742;13.650;2023-10-09T10:58:30;101180.66;;;33.75;23.45
18918;BME280;9591;52.742;13.650;2023-10-09T11:01:34;101171.78;;;34.24;22.58
18918;BME280;9591;52.742;13.650;2023-10-09T11:04:36;101177.91;;;33.75;22.78
18918;BME280;9591;52.742;13.650;2023-10-09T11:07:30;101167.75;;;33.91;22.99
18918;BME280;9591;52.742;13.650;2023-10-09T11:10:21;101149.09;;;33.86;23.28
18918;BME280;9591;52.742;13.650;2023-10-09T11:13:20;101114.56;;;33.77;22.33
18918;BME280;9591;52.742;13.650;2023-10-09T11:16:20;101147.50;;;34.42;22.76
18918;BME280;9591;52.742;13.650;2023-10-09T11:19:28;101145.41;;;33.94;22.55
18918;BME280;9591;52.742;13.650;2023-10-09T11:22:18;101130.56;;;33.73;22.73
18918;BME280;9591;52.742;13.650;2023-10-09T11:25:14;101137.78;;;34.10;22.53
18918;BME280;9591;52.742;13.650;2023-10-09T11:28:16;101132.66;;;34.22;22.38
18918;BME280;9591;52.742;13.650;2023-10-09T11:31:13;101129.38;;;34.48;22.22
18918;BME280;9591;52.742;13.650;2023-10-09T11:34:03;101135.13;;;34.32;22.16
18918;BME280;9591;52.742;13.650;2023-10-09T11:36:50;101139.97;;;34.51;22.32
18918;BME280;9591;52.742;13.650;2023-10-09T11:39:41;101127.94;;;34.52;21.86
18918;BME280;9591;52.742;13.650;2023-10-09T11:42:42;101110.19;;;34.33;22.28
18918;BME280;9591;52.742;13.650;2023-10-09T11:45:34;101132.81;;;34.35;21.92
18918;BME280;9591;52.742;13.650;2023-10-09T11:48:23;101136.47;;;34.06;22.72
18918;BME280;9591;52.742;13.650;2023-10-09T11:51:15;101133.88;;;34.34;22.37
18918;BME280;9591;52.742;13.650;2023-10-09T11:54:05;101132.44;;;33.87;22.45
18918;BME280;9591;52.742;13.650;2023-10-09T11:56:54;101129.88;;;34.37;22.10
18918;BME280;9591;52.742;13.650;2023-10-09T11:59:41;101134.63;;;34.71;21.42
18918;BME280;9591;52.742;13.650;2023-10-09T12:02:29;101124.84;;;34.62;22.35
18918;BME280;9591;52.742;13.650;2023-10-09T12:05:16;101131.56;;;35.02;21.88
18918;BME280;9591;52.742;13.650;2023-10-09T12:08:06;101129.34;;;34.69;22.26
18918;BME280;9591;52.742;13.650;2023-10-09T12:10:54;101126.22;;;32.97;22.99
18918;BME280;9591;52.742;13.650;2023-10-09T12:13:42;101116.28;;;33.63;22.34
18918;BME280;9591;52.742;13.650;2023-10-09T12:16:29;101117.38;;;33.83;21.75
18918;BME280;9591;52.742;13.650;2023-10-09T12:19:18;101133.31;;;32.92;22.74
18918;BME280;9591;52.742;13.650;2023-10-09T12:22:07;101129.44;;;34.55;21.88
18918;BME280;9591;52.742;13.650;2023-10-09T12:24:57;101122.28;;;34.60;21.47
18918;BME280;9591;52.742;13.650;2023-10-09T12:27:44;101127.81;;;34.67;21.77
18918;BME280;9591;52.742;13.650;2023-10-09T12:30:31;101126.03;;;34.53;21.67
18918;BME280;9591;52.742;13.650;2023-10-09T12:33:25;101127.66;;;34.47;22.09
18918;BME280;9591;52.742;13.650;2023-10-09T12:36:13;101127.34;;;34.57;21.65
18918;BME280;9591;52.742;13.650;2023-10-09T12:39:06;101129.28;;;34.05;21.79
18918;BME280;9591;52.742;13.650;2023-10-09T12:42:05;101122.47;;;34.37;22.06
18918;BME280;9591;52.742;13.650;2023-10-09T12:44:54;101124.53;;;34.78;22.18
18918;BME280;9591;52.742;13.650;2023-10-09T12:47:43;101114.38;;;34.50;21.75
18918;BME280;9591;52.742;13.650;2023-10-09T12:50:30;101115.38;;;34.28;22.26
18918;BME280;9591;52.742;13.650;2023-10-09T12:53:19;101120.00;;;34.64;22.42
18918;BME280;9591;52.742;13.650;2023-10-09T12:56:06;101123.16;;;33.88;22.15
18918;BME280;9591;52.742;13.650;2023-10-09T12:58:55;101122.22;;;34.54;22.24
18918;BME280;9591;52.742;13.650;2023-10-09T13:01:42;101117.81;;;34.80;22.05
18918;BME280;9591;52.742;13.650;2023-10-09T13:04:30;101118.50;;;35.10;21.06
18918;BME280;9591;52.742;13.650;2023-10-09T13:07:19;101113.22;;;34.88;21.27
18918;BME280;9591;52.742;13.650;2023-10-09T13:10:08;101107.53;;;35.17;21.35
18918;BME280;9591;52.742;13.650;2023-10-09T13:12:57;101116.84;;;35.44;20.89
18918;BME280;9591;52.742;13.650;2023-10-09T13:15:45;101128.66;;;35.10;20.92
18918;BME280;9591;52.742;13.650;2023-10-09T13:18:32;101119.41;;;35.17;20.62
18918;BME280;9591;52.742;13.650;2023-10-09T13:21:21;101108.88;;;34.78;21.43
18918;BME280;9591;52.742;13.650;2023-10-09T13:24:08;101099.44;;;35.09;21.32
18918;BME280;9591;52.742;13.650;2023-10-09T13:26:58;101107.97;;;34.29;22.31
18918;BME280;9591;52.742;13.650;2023-10-09T13:29:47;101113.44;;;34.65;21.97
18918;BME280;9591;52.742;13.650;2023-10-09T13:32:35;101119.03;;;34.78;22.01
18918;BME280;9591;52.742;13.650;2023-10-09T13:35:22;101117.81;;;34.02;22.97
18918;BME280;9591;52.742;13.650;2023-10-09T13:38:23;101113.44;;;34.07;22.54
18918;BME280;9591;52.742;13.650;2023-10-09T13:41:12;101104.19;;;34.30;22.21
18918;BME280;9591;52.742;13.650;2023-10-09T13:44:03;101121.56;;;33.79;22.86
18918;BME280;9591;52.742;13.650;2023-10-09T13:46:50;101118.44;;;33.53;23.30
18918;BME280;9591;52.742;13.650;2023-10-09T13:49:38;101119.78;;;33.42;23.71
18918;BME280;9591;52.742;13.650;2023-10-09T13:52:28;101112.38;;;33.28;23.74
18918;BME280;9591;52.742;13.650;2023-10-09T13:55:16;101116.13;;;33.27;23.64
18918;BME280;9591;52.742;13.650;2023-10-09T13:58:03;101115.69;;;33.38;23.53
18918;BME280;9591;52.742;13.650;2023-10-09T14:00:55;101104.09;;;33.13;23.63
18918;BME280;9591;52.742;13.650;2023-10-09T14:03:42;101111.84;;;33.10;23.21
18918;BME280;9591;52.742;13.650;2023-10-09T14:06:35;101106.13;;;33.34;23.32
18918;BME280;9591;52.742;13.650;2023-10-09T14:09:23;101039.56;;;33.03;23.57
18918;BME280;9591;52.742;13.650;2023-10-09T14:12:23;101098.25;;;33.90;22.78
18918;BME280;9591;52.742;13.650;2023-10-09T14:15:15;101079.78;;;33.84;22.86
18918;BME280;9591;52.742;13.650;2023-10-09T14:18:03;101076.72;;;33.94;23.26
18918;BME280;9591;52.742;13.650;2023-10-09T14:20:54;101078.41;;;33.59;23.28
18918;BME280;9591;52.742;13.650;2023-10-09T14:23:43;101090.59;;;33.27;23.21
18918;BME280;9591;52.742;13.650;2023-10-09T14:26:32;101095.41;;;33.24;23.44
18918;BME280;9591;52.742;13.650;2023-10-09T14:29:20;101089.19;;;33.60;23.08
18918;BME280;9591;52.742;13.650;2023-10-09T14:32:10;101097.22;;;33.76;22.41
18918;BME280;9591;52.742;13.650;2023-10-09T14:34:58;101094.56;;;33.68;22.90
18918;BME280;9591;52.742;13.650;2023-10-09T14:37:47;101095.91;;;33.43;23.76
18918;BME280;9591;52.742;13.650;2023-10-09T14:40:35;101092.22;;;33.50;23.41
18918;BME280;9591;52.742;13.650;2023-10-09T14:43:27;101101.97;;;33.38;23.74
18918;BME280;9591;52.742;13.650;2023-10-09T14:46:20;101092.03;;;33.37;23.25
18918;BME280;9591;52.742;13.650;2023-10-09T14:49:11;101090.59;;;33.27;23.19
18918;BME280;9591;52.742;13.650;2023-10-09T14:51:59;101082.28;;;33.64;22.90
18918;BME280;9591;52.742;13.650;2023-10-09T14:54:46;101081.34;;;33.57;22.78
18918;BME280;9591;52.742;13.650;2023-10-09T14:57:37;101084.56;;;33.46;22.85
18918;BME280;9591;52.742;13.650;2023-10-09T15:00:24;101076.44;;;33.38;22.83
18918;BME280;9591;52.742;13.650;2023-10-09T15:03:13;101078.56;;;33.28;23.56
18918;BME280;9591;52.742;13.650;2023-10-09T15:06:00;101088.22;;;33.82;22.99
18918;BME280;9591;52.742;13.650;2023-10-09T15:08:47;101097.53;;;34.03;21.95